createdAt,value
2022-12-06T00:03:10.420Z,126.40
2022-12-06T00:06:38.184Z,108.77
2022-12-06T00:10:01.774Z,142.23
2022-12-06T00:13:26.451Z,118.37
2022-12-06T00:16:50.248Z,138.27
2022-12-06T00:20:13.492Z,134.23
2022-12-06T00:23:37.981Z,111.70
2022-12-06T00:27:01.097Z,144.93
2022-12-06T00:30:25.752Z,131.47
2022-12-06T00:33:49.828Z,128.50
2022-12-06T00:37:13.055Z,124.17
2022-12-06T00:40:36.272Z,135.13
2022-12-06T00:43:59.527Z,158.67
2022-12-06T00:47:24.058Z,172.00
2022-12-06T00:50:47.190Z,129.80
2022-12-06T00:54:15.268Z,130.00
2022-12-06T00:57:38.287Z,115.47
2022-12-06T01:01:09.336Z,115.63
2022-12-06T01:04:33.993Z,120.67
2022-12-06T01:07:57.318Z,109.03
2022-12-06T01:11:20.469Z,111.73
2022-12-06T01:14:43.704Z,108.37
2022-12-06T01:18:07.016Z,95.90
2022-12-06T01:21:31.877Z,127.47
2022-12-06T01:24:55.172Z,143.07
2022-12-06T01:28:18.341Z,121.53
2022-12-06T01:31:41.484Z,121.57
2022-12-06T01:35:04.929Z,98.33
2022-12-06T01:38:29.553Z,121.43
2022-12-06T01:41:52.707Z,112.23
2022-12-06T01:45:15.852Z,111.93
2022-12-06T01:48:40.089Z,148.80
2022-12-06T01:52:09.087Z,152.17
2022-12-06T01:55:37.344Z,147.53
2022-12-06T01:59:01.115Z,109.23
2022-12-06T02:02:24.288Z,90.53
2022-12-06T02:05:47.439Z,101.93
2022-12-06T02:09:12.374Z,98.87
2022-12-06T02:12:37.072Z,123.53
2022-12-06T02:16:13.043Z,96.57
2022-12-06T02:20:03.703Z,98.97
2022-12-06T02:24:04.084Z,154.60
2022-12-06T02:27:52.550Z,124.97
2022-12-06T02:31:24.545Z,127.33
2022-12-06T02:34:56.218Z,121.53
2022-12-06T02:38:34.769Z,114.90
2022-12-06T02:42:02.248Z,108.57
2022-12-06T02:45:30.470Z,99.80
2022-12-06T02:48:57.293Z,93.07
2022-12-06T02:52:24.652Z,124.10
2022-12-06T02:55:48.890Z,119.73
2022-12-06T02:59:11.949Z,99.57
2022-12-06T03:02:36.893Z,135.70
2022-12-06T03:06:40.740Z,122.87
2022-12-06T03:10:18.369Z,79.67
2022-12-06T03:13:53.946Z,71.47
2022-12-06T03:17:24.121Z,93.50
2022-12-06T03:20:52.938Z,82.00
2022-12-06T03:24:17.872Z,90.77
2022-12-06T03:27:43.294Z,71.10
2022-12-06T03:31:10.806Z,73.97
2022-12-06T03:34:36.523Z,63.03
2022-12-06T03:38:06.814Z,72.63
2022-12-06T03:41:37.041Z,69.90
2022-12-06T03:45:00.629Z,73.93
2022-12-06T03:48:28.574Z,71.57
2022-12-06T03:51:51.793Z,65.60
2022-12-06T03:55:14.898Z,67.17
2022-12-06T03:58:39.385Z,73.67
2022-12-06T04:02:02.679Z,61.10
2022-12-06T04:05:25.829Z,67.13
2022-12-06T04:08:48.885Z,57.97
2022-12-06T04:12:25.775Z,58.67
2022-12-06T04:15:50.408Z,62.27
2022-12-06T04:19:12.496Z,68.73
2022-12-06T04:22:52.803Z,63.53
2022-12-06T04:26:19.105Z,62.53
2022-12-06T04:29:59.745Z,65.27
2022-12-06T04:33:41.982Z,61.70
2022-12-06T04:37:22.857Z,62.53
2022-12-06T04:40:48.243Z,55.83
2022-12-06T04:44:10.841Z,69.77
2022-12-06T04:47:34.005Z,59.10
2022-12-06T04:50:58.703Z,71.83
2022-12-06T04:54:21.857Z,71.03
2022-12-06T04:57:45.022Z,58.80
2022-12-06T05:01:08.329Z,75.33
2022-12-06T05:04:31.862Z,65.77
2022-12-06T05:07:56.434Z,53.80
2022-12-06T05:11:19.563Z,60.93
2022-12-06T05:14:42.723Z,61.20
2022-12-06T05:18:06.012Z,54.07
2022-12-06T05:21:29.159Z,52.33
2022-12-06T05:24:53.814Z,55.30
2022-12-06T05:28:16.968Z,52.43
2022-12-06T05:31:40.188Z,52.13
2022-12-06T05:35:03.430Z,63.00
2022-12-06T05:38:26.878Z,53.50
2022-12-06T05:41:51.442Z,62.63
2022-12-06T05:45:14.574Z,70.07
2022-12-06T05:48:37.713Z,59.80
2022-12-06T05:52:03.976Z,65.13
2022-12-06T05:55:28.304Z,55.57
2022-12-06T05:58:52.863Z,60.23
2022-12-06T06:02:16.119Z,64.10
2022-12-06T06:05:39.332Z,58.87
2022-12-06T06:09:02.633Z,66.97
2022-12-06T06:12:25.714Z,63.10
2022-12-06T06:15:51.147Z,71.60
2022-12-06T06:19:14.587Z,60.40
2022-12-06T06:22:52.891Z,65.07
2022-12-06T06:30:42.726Z,70.17
2022-12-06T06:34:15.309Z,58.40
2022-12-06T06:37:38.831Z,60.37
2022-12-06T06:41:03.358Z,55.70
2022-12-06T06:44:26.508Z,55.77
2022-12-06T06:47:49.709Z,63.90
2022-12-06T06:51:14.792Z,60.63
2022-12-06T06:54:37.872Z,61.40
2022-12-06T06:58:00.916Z,61.87
2022-12-06T07:01:25.661Z,64.77
2022-12-06T07:04:49.937Z,61.50
2022-12-06T07:08:14.596Z,58.80
2022-12-06T07:11:37.825Z,63.00
2022-12-06T07:15:00.886Z,64.77
2022-12-06T07:18:24.329Z,63.47
2022-12-06T07:21:47.423Z,71.20
2022-12-06T07:25:12.232Z,56.07
2022-12-06T07:28:36.892Z,70.90
2022-12-06T07:31:59.976Z,66.60
2022-12-06T07:35:23.496Z,66.67
2022-12-06T07:38:50.738Z,60.50
2022-12-06T07:42:32.839Z,66.47
2022-12-06T07:45:56.526Z,70.67
2022-12-06T07:49:20.323Z,59.23
2022-12-06T07:52:44.470Z,57.37
2022-12-06T07:56:08.811Z,58.40
2022-12-06T07:59:33.901Z,57.40
2022-12-06T08:02:57.059Z,65.33
2022-12-06T08:06:20.095Z,54.03
2022-12-06T08:09:43.189Z,58.57
2022-12-06T08:13:06.213Z,60.73
2022-12-06T08:16:31.031Z,62.17
2022-12-06T08:19:54.177Z,60.40
2022-12-06T08:23:17.285Z,54.73
2022-12-06T08:26:40.337Z,65.53
2022-12-06T08:30:03.753Z,54.17
2022-12-06T08:33:28.611Z,54.27
2022-12-06T08:36:51.724Z,54.40
2022-12-06T08:40:15.160Z,48.53
2022-12-06T08:43:38.721Z,54.47
2022-12-06T08:47:02.802Z,51.03
2022-12-06T08:50:27.544Z,48.70
2022-12-06T08:53:50.896Z,50.17
2022-12-06T08:57:14.069Z,46.13
2022-12-06T09:00:37.100Z,52.00
2022-12-06T09:04:00.475Z,51.90
2022-12-06T09:07:26.366Z,47.10
2022-12-06T09:10:49.443Z,48.13
2022-12-06T09:14:20.943Z,46.67
2022-12-06T09:17:44.933Z,44.28
2022-12-06T09:21:09.340Z,50.60
2022-12-06T09:24:33.810Z,37.50
2022-12-06T09:27:56.925Z,43.33
2022-12-06T09:31:20.541Z,41.30
2022-12-06T09:34:43.922Z,43.43
2022-12-06T09:38:07.761Z,46.22
2022-12-06T09:41:49.130Z,42.47
2022-12-06T09:45:23.624Z,38.47
2022-12-06T09:49:12.391Z,43.03
2022-12-06T09:52:52.747Z,37.80
2022-12-06T09:56:21.835Z,43.27
2022-12-06T09:59:56.366Z,38.37
2022-12-06T10:03:36.584Z,37.15
2022-12-06T10:07:06.926Z,33.88
2022-12-06T10:10:40.852Z,31.88
2022-12-06T10:14:13.841Z,37.85
2022-12-06T10:17:52.061Z,38.20
2022-12-06T10:21:22.206Z,31.52
2022-12-06T10:24:57.021Z,48.17
2022-12-06T10:28:32.324Z,28.80
2022-12-06T10:31:58.578Z,29.30
2022-12-06T10:35:41.812Z,28.17
2022-12-06T10:39:12.712Z,20.20
2022-12-06T10:42:41.371Z,20.75
2022-12-06T10:46:29.865Z,23.48
2022-12-06T10:49:59.434Z,22.50
2022-12-06T10:53:29.406Z,19.45
2022-12-06T10:56:56.452Z,21.73
2022-12-06T11:00:22.473Z,16.33
2022-12-06T11:03:54.068Z,17.38
2022-12-06T11:07:21.867Z,14.38
2022-12-06T11:10:48.649Z,15.63
2022-12-06T11:14:19.560Z,27.25
2022-12-06T11:17:47.839Z,12.57
2022-12-06T11:21:21.625Z,12.88
2022-12-06T11:24:51.257Z,14.93
2022-12-06T11:28:32.602Z,14.80
2022-12-06T11:31:58.494Z,14.02
2022-12-06T11:35:26.741Z,17.40
2022-12-06T11:38:50.048Z,13.55
2022-12-06T11:42:16.172Z,11.60
2022-12-06T11:45:42.630Z,9.65
2022-12-06T11:49:16.879Z,11.93
2022-12-06T11:52:44.900Z,10.75
2022-12-06T11:56:16.387Z,12.25
2022-12-06T11:59:39.485Z,9.38
2022-12-06T12:03:04.110Z,10.73
2022-12-06T12:06:28.231Z,8.70
2022-12-06T12:09:57.692Z,8.65
2022-12-06T12:13:40.290Z,8.80
2022-12-06T12:17:05.910Z,7.28
2022-12-06T12:20:33.551Z,6.88
2022-12-06T12:23:57.784Z,10.20
2022-12-06T12:27:45.753Z,16.88
2022-12-06T12:31:19.520Z,7.65
2022-12-06T12:34:43.088Z,11.43
2022-12-06T12:38:16.555Z,8.90
2022-12-06T12:41:42.905Z,7.40
2022-12-06T12:45:07.460Z,6.63
2022-12-06T12:48:30.535Z,7.15
2022-12-06T12:51:54.195Z,6.45
2022-12-06T12:55:21.937Z,8.70
2022-12-06T12:58:47.465Z,7.13
2022-12-06T13:02:19.993Z,5.53
2022-12-06T13:05:47.118Z,7.40
2022-12-06T13:09:18.873Z,6.60
2022-12-06T13:12:47.048Z,7.30
2022-12-06T13:16:15.322Z,5.93
2022-12-06T13:19:51.728Z,6.40
2022-12-06T13:23:19.258Z,5.65
2022-12-06T13:26:47.262Z,5.45
2022-12-06T13:30:19.235Z,6.50
2022-12-06T13:33:48.109Z,5.57
2022-12-06T13:37:27.529Z,5.28
2022-12-06T13:40:52.960Z,7.13
2022-12-06T13:44:41.667Z,5.05
2022-12-06T13:48:39.911Z,4.20
2022-12-06T13:52:03.184Z,6.00
2022-12-06T13:56:00.848Z,4.65
2022-12-06T13:59:42.136Z,4.43
2022-12-06T14:03:40.410Z,5.00
2022-12-06T14:10:29.301Z,5.10
2022-12-06T14:14:02.995Z,4.97
2022-12-06T14:18:00.282Z,4.82
2022-12-06T14:21:23.457Z,7.03
2022-12-06T14:24:59.846Z,5.07
2022-12-06T14:28:22.922Z,4.85
2022-12-06T14:31:46.178Z,5.80
2022-12-06T14:35:14.452Z,5.88
2022-12-06T14:38:37.956Z,11.20
2022-12-06T14:42:22.091Z,6.60
2022-12-06T14:45:46.610Z,7.35
2022-12-06T14:49:34.085Z,9.07
2022-12-06T14:53:00.422Z,5.68
2022-12-06T14:56:31.985Z,5.57
2022-12-06T15:00:25.919Z,4.97
2022-12-06T15:03:59.232Z,5.50
2022-12-06T15:07:43.428Z,5.75
2022-12-06T15:11:36.598Z,5.65
2022-12-06T15:15:02.774Z,6.00
2022-12-06T15:18:28.237Z,5.88
2022-12-06T15:21:52.270Z,6.75
2022-12-06T15:25:16.033Z,5.40
2022-12-06T15:28:39.437Z,5.65
2022-12-06T15:32:04.013Z,7.07
2022-12-06T15:35:27.301Z,7.65
2022-12-06T15:38:51.079Z,8.43
2022-12-06T15:42:20.563Z,6.47
2022-12-06T15:45:44.124Z,11.65
2022-12-06T15:49:09.964Z,8.88
2022-12-06T15:52:33.656Z,6.95
2022-12-06T15:55:57.981Z,7.68
2022-12-06T15:59:21.474Z,11.25
2022-12-06T16:02:45.062Z,7.45
2022-12-06T16:06:13.541Z,7.43
2022-12-06T16:09:36.934Z,10.00
2022-12-06T16:13:17.030Z,12.27
2022-12-06T16:16:43.498Z,9.48
2022-12-06T16:20:26.537Z,8.23
2022-12-06T16:24:12.957Z,8.38
2022-12-06T16:27:37.186Z,9.85
2022-12-06T16:31:00.623Z,8.43
2022-12-06T16:34:25.124Z,10.13
2022-12-06T16:37:48.299Z,11.93
2022-12-06T16:41:22.563Z,10.02
2022-12-06T16:44:51.963Z,10.70
2022-12-06T16:48:18.407Z,9.37
2022-12-06T16:51:41.642Z,10.13
2022-12-06T16:55:05.219Z,10.18
2022-12-06T16:58:30.105Z,9.68
2022-12-06T17:01:55.223Z,10.07
2022-12-06T17:05:21.536Z,8.55
2022-12-06T17:08:46.211Z,9.30
2022-12-06T17:12:13.267Z,13.25
2022-12-06T17:15:38.312Z,9.17
2022-12-06T17:19:02.149Z,10.00
2022-12-06T17:22:26.532Z,9.20
2022-12-06T17:25:57.872Z,8.82
2022-12-06T17:29:21.572Z,11.98
2022-12-06T17:32:47.916Z,9.48
2022-12-06T17:36:12.754Z,8.23
2022-12-06T17:39:36.500Z,11.35
2022-12-06T17:43:02.723Z,9.47
2022-12-06T17:46:26.074Z,8.40
2022-12-06T17:49:50.534Z,10.57
2022-12-06T17:53:13.534Z,11.83
2022-12-06T17:56:38.241Z,10.32
2022-12-06T18:00:01.874Z,11.03
2022-12-06T18:03:30.344Z,8.95
2022-12-06T18:06:55.363Z,10.03
2022-12-06T18:10:19.072Z,13.55
2022-12-06T18:13:42.593Z,10.45
2022-12-06T18:17:05.974Z,9.23
2022-12-06T18:20:29.332Z,10.07
2022-12-06T18:24:20.152Z,12.67
2022-12-06T18:27:37.651Z,9.57
2022-12-06T18:31:00.709Z,16.80
2022-12-06T18:34:23.897Z,10.20
2022-12-06T18:37:46.927Z,9.40
2022-12-06T18:41:13.650Z,10.65
2022-12-06T18:44:36.953Z,14.57
2022-12-06T18:48:00.054Z,11.23
2022-12-06T18:51:25.242Z,12.95
2022-12-06T18:54:48.486Z,11.43
2022-12-06T18:58:12.823Z,11.40
2022-12-06T19:01:38.759Z,16.10
2022-12-06T19:05:02.702Z,10.52
2022-12-06T19:08:26.110Z,15.03
2022-12-06T19:11:49.356Z,13.70
2022-12-06T19:15:14.910Z,12.77
2022-12-06T19:18:37.885Z,12.13
2022-12-06T19:22:00.913Z,13.32
2022-12-06T19:25:34.727Z,11.52
2022-12-06T19:29:04.265Z,12.40
2022-12-06T19:32:29.268Z,13.07
2022-12-06T19:35:58.522Z,14.45
2022-12-06T19:39:22.993Z,12.40
2022-12-06T19:43:18.336Z,13.20
2022-12-06T19:46:43.990Z,11.75
2022-12-06T19:50:10.082Z,16.65
2022-12-06T19:53:34.937Z,13.77
2022-12-06T19:56:59.582Z,15.98
2022-12-06T20:00:23.170Z,15.63
2022-12-06T20:03:47.091Z,15.85
2022-12-06T20:07:12.235Z,20.13
2022-12-06T20:10:36.860Z,14.63
2022-12-06T20:14:00.898Z,16.80
2022-12-06T20:17:24.605Z,15.55
2022-12-06T20:20:49.120Z,15.93
2022-12-06T20:24:15.944Z,15.50
2022-12-06T20:27:54.346Z,15.30
2022-12-06T20:31:20.917Z,14.75
2022-12-06T20:34:44.019Z,15.82
2022-12-06T20:38:07.117Z,17.98
2022-12-06T20:41:33.268Z,14.90
2022-12-06T20:44:56.531Z,16.27
2022-12-06T20:48:19.613Z,16.63
2022-12-06T20:51:45.803Z,15.80
2022-12-06T20:55:12.711Z,16.33
2022-12-06T20:58:37.733Z,19.77
2022-12-06T21:02:00.878Z,16.43
2022-12-06T21:05:24.053Z,17.95
2022-12-06T21:08:47.733Z,15.68
2022-12-06T21:12:10.856Z,19.25
2022-12-06T21:15:35.687Z,24.20
2022-12-06T21:19:00.731Z,18.50
2022-12-06T21:22:23.880Z,18.20
2022-12-06T21:25:47.043Z,21.65
2022-12-06T21:29:15.322Z,19.43
2022-12-06T21:32:39.844Z,27.50
2022-12-06T21:36:04.568Z,20.40
2022-12-06T21:39:27.581Z,24.60
2022-12-06T21:42:50.567Z,22.10
2022-12-06T21:46:16.745Z,22.03
2022-12-06T21:49:42.215Z,25.37
2022-12-06T21:53:05.237Z,22.45
2022-12-06T21:56:30.564Z,26.90
2022-12-06T21:59:53.642Z,23.40
2022-12-06T22:03:22.990Z,23.37
2022-12-06T22:06:47.858Z,21.40
2022-12-06T22:10:11.858Z,27.10
2022-12-06T22:13:35.564Z,25.50
2022-12-06T22:16:58.553Z,25.20
2022-12-06T22:20:21.488Z,28.67
2022-12-06T22:23:46.391Z,33.23
2022-12-06T22:27:09.414Z,30.13
2022-12-06T22:30:32.404Z,29.15
2022-12-06T22:33:55.677Z,31.38
2022-12-06T22:37:19.111Z,33.67
2022-12-06T22:40:45.281Z,35.53
2022-12-06T22:44:08.457Z,34.92
2022-12-06T22:47:31.419Z,36.35
2022-12-06T22:50:54.384Z,33.67
2022-12-06T22:54:17.335Z,33.88
2022-12-06T22:57:41.636Z,35.03
2022-12-06T23:01:15.957Z,28.50
2022-12-06T23:04:39.604Z,30.10
2022-12-06T23:08:02.634Z,29.83
2022-12-06T23:11:27.803Z,30.50
2022-12-06T23:14:52.135Z,28.42
2022-12-06T23:18:15.088Z,31.87
2022-12-06T23:21:40.707Z,30.17
2022-12-06T23:25:03.702Z,34.63
2022-12-06T23:28:26.668Z,35.00
2022-12-06T23:31:51.113Z,34.65
2022-12-06T23:35:14.214Z,38.87
2022-12-06T23:38:37.534Z,33.88
2022-12-06T23:42:00.511Z,36.72
2022-12-06T23:45:23.505Z,35.17
2022-12-06T23:48:47.924Z,35.60
2022-12-06T23:52:10.868Z,33.17
2022-12-06T23:55:36.616Z,32.75
2022-12-06T23:59:00.270Z,36.50
